<?xml version="1.0" encoding="utf-8"?>
<gpx xmlns:xsi="http://www.w3.org/2001/XMLSchema-instance" xmlns:xsd="http://www.w3.org/2001/XMLSchema" version="1.1" creator="Shapelink.com" xmlns="http://www.topografix.com/GPX/1/1" xmlns:gpxtpx="http://www.garmin.com/xmlschemas/TrackPointExtension/v1">
  <metadata>
    <name>Löpning 7.08 km, 2020-02-08</name>
    <desc></desc>
    <author><name>Marian Moron</name></author> 
    <time>2020-02-08T10:59:58Z</time>
  </metadata>
  <trk>
    <name>Löpning 7.08 km, 2020-02-08</name>
    <trkseg>
      <trkpt lat="51.264697343186" lon="4.510471799855">
        <ele>436.4</ele>
        <time>2020-02-08T11:00:21Z</time>
      </trkpt>
      <trkpt lat="51.264577565835" lon="4.510203579055">
        <ele>419.4</ele>
        <time>2020-02-08T11:00:28Z</time>
      </trkpt>
      <trkpt lat="51.264472624447" lon="4.509951954417">
        <ele>416.6</ele>
        <time>2020-02-08T11:00:34Z</time>
      </trkpt>
      <trkpt lat="51.264319403315" lon="4.509735030845">
        <ele>388.4</ele>
        <time>2020-02-08T11:00:42Z</time>
      </trkpt>
      <trkpt lat="51.265263372893" lon="4.50922499223">
        <ele>0</ele>
        <time>2020-02-08T11:01:07Z</time>
      </trkpt>
      <trkpt lat="51.265045443493" lon="4.5090933964">
        <ele>0</ele>
        <time>2020-02-08T11:01:13Z</time>
      </trkpt>
      <trkpt lat="51.264876296751" lon="4.508942103105">
        <ele>0</ele>
        <time>2020-02-08T11:01:18Z</time>
      </trkpt>
      <trkpt lat="51.264848301205" lon="4.508931458092">
        <ele>0</ele>
        <time>2020-02-08T11:01:19Z</time>
      </trkpt>
      <trkpt lat="51.26470203705" lon="4.508853087327">
        <ele>0</ele>
        <time>2020-02-08T11:01:23Z</time>
      </trkpt>
      <trkpt lat="51.264050595782" lon="4.508537257335">
        <ele>0</ele>
        <time>2020-02-08T11:02:05Z</time>
      </trkpt>
      <trkpt lat="51.26400047202" lon="4.508489648143">
        <ele>0</ele>
        <time>2020-02-08T11:02:08Z</time>
      </trkpt>
      <trkpt lat="51.263876000805" lon="4.508260822273">
        <ele>0</ele>
        <time>2020-02-08T11:02:14Z</time>
      </trkpt>
      <trkpt lat="51.263757229282" lon="4.507988997256">
        <ele>0</ele>
        <time>2020-02-08T11:02:21Z</time>
      </trkpt>
      <trkpt lat="51.26362412471" lon="4.507748520545">
        <ele>0</ele>
        <time>2020-02-08T11:02:29Z</time>
      </trkpt>
      <trkpt lat="51.263524883014" lon="4.507508211472">
        <ele>0</ele>
        <time>2020-02-08T11:02:36Z</time>
      </trkpt>
      <trkpt lat="51.263389766786" lon="4.507273266815">
        <ele>0</ele>
        <time>2020-02-08T11:02:43Z</time>
      </trkpt>
      <trkpt lat="51.263335871169" lon="4.507175366223">
        <ele>0</ele>
        <time>2020-02-08T11:02:46Z</time>
      </trkpt>
      <trkpt lat="51.263181979485" lon="4.506958610289">
        <ele>0</ele>
        <time>2020-02-08T11:02:53Z</time>
      </trkpt>
      <trkpt lat="51.263003445015" lon="4.506748476056">
        <ele>0</ele>
        <time>2020-02-08T11:02:58Z</time>
      </trkpt>
      <trkpt lat="51.26287226828" lon="4.506494923581">
        <ele>0</ele>
        <time>2020-02-08T11:03:05Z</time>
      </trkpt>
      <trkpt lat="51.262754167309" lon="4.506258386363">
        <ele>0</ele>
        <time>2020-02-08T11:03:12Z</time>
      </trkpt>
      <trkpt lat="51.262617290882" lon="4.506025956276">
        <ele>0</ele>
        <time>2020-02-08T11:03:20Z</time>
      </trkpt>
      <trkpt lat="51.262475133858" lon="4.505798806786">
        <ele>0</ele>
        <time>2020-02-08T11:03:27Z</time>
      </trkpt>
      <trkpt lat="51.262352841937" lon="4.505560006455">
        <ele>0</ele>
        <time>2020-02-08T11:03:34Z</time>
      </trkpt>
      <trkpt lat="51.262224934143" lon="4.505321122305">
        <ele>0</ele>
        <time>2020-02-08T11:03:41Z</time>
      </trkpt>
      <trkpt lat="51.262098283634" lon="4.505091793521">
        <ele>0</ele>
        <time>2020-02-08T11:03:48Z</time>
      </trkpt>
      <trkpt lat="51.261974399152" lon="4.504878390347">
        <ele>0</ele>
        <time>2020-02-08T11:03:55Z</time>
      </trkpt>
      <trkpt lat="51.261855124715" lon="4.504630286107">
        <ele>0</ele>
        <time>2020-02-08T11:04:03Z</time>
      </trkpt>
      <trkpt lat="51.261727133102" lon="4.504411686155">
        <ele>0</ele>
        <time>2020-02-08T11:04:10Z</time>
      </trkpt>
      <trkpt lat="51.261598554756" lon="4.504204485587">
        <ele>0</ele>
        <time>2020-02-08T11:04:16Z</time>
      </trkpt>
      <trkpt lat="51.261463103252" lon="4.503983957798">
        <ele>0</ele>
        <time>2020-02-08T11:04:22Z</time>
      </trkpt>
      <trkpt lat="51.261339889322" lon="4.503738032852">
        <ele>0</ele>
        <time>2020-02-08T11:04:29Z</time>
      </trkpt>
      <trkpt lat="51.261212149166" lon="4.50350434548">
        <ele>0</ele>
        <time>2020-02-08T11:04:36Z</time>
      </trkpt>
      <trkpt lat="51.26108859996" lon="4.503282057492">
        <ele>0</ele>
        <time>2020-02-08T11:04:43Z</time>
      </trkpt>
      <trkpt lat="51.260970079894" lon="4.503047448111">
        <ele>0</ele>
        <time>2020-02-08T11:04:50Z</time>
      </trkpt>
      <trkpt lat="51.260852398018" lon="4.502816107671">
        <ele>0</ele>
        <time>2020-02-08T11:04:57Z</time>
      </trkpt>
      <trkpt lat="51.260725496052" lon="4.502594657873">
        <ele>0</ele>
        <time>2020-02-08T11:05:04Z</time>
      </trkpt>
      <trkpt lat="51.260615190248" lon="4.502339931932">
        <ele>0</ele>
        <time>2020-02-08T11:05:11Z</time>
      </trkpt>
      <trkpt lat="51.260501196408" lon="4.502109932596">
        <ele>0</ele>
        <time>2020-02-08T11:05:18Z</time>
      </trkpt>
      <trkpt lat="51.260385442369" lon="4.501886219685">
        <ele>0</ele>
        <time>2020-02-08T11:05:25Z</time>
      </trkpt>
      <trkpt lat="51.260279243696" lon="4.501651610304">
        <ele>0</ele>
        <time>2020-02-08T11:05:32Z</time>
      </trkpt>
      <trkpt lat="51.260174302308" lon="4.501416833285">
        <ele>0</ele>
        <time>2020-02-08T11:05:39Z</time>
      </trkpt>
      <trkpt lat="51.260054357319" lon="4.501192030727">
        <ele>0</ele>
        <time>2020-02-08T11:05:47Z</time>
      </trkpt>
      <trkpt lat="51.259924102593" lon="4.500966054703">
        <ele>0</ele>
        <time>2020-02-08T11:05:54Z</time>
      </trkpt>
      <trkpt lat="51.259759901172" lon="4.500732199693">
        <ele>0</ele>
        <time>2020-02-08T11:06:02Z</time>
      </trkpt>
      <trkpt lat="51.259614559026" lon="4.500552827033">
        <ele>0</ele>
        <time>2020-02-08T11:06:09Z</time>
      </trkpt>
      <trkpt lat="51.259466618491" lon="4.500365743025">
        <ele>0</ele>
        <time>2020-02-08T11:06:16Z</time>
      </trkpt>
      <trkpt lat="51.259320605793" lon="4.500159213009">
        <ele>0</ele>
        <time>2020-02-08T11:06:23Z</time>
      </trkpt>
      <trkpt lat="51.259148776843" lon="4.500032730138">
        <ele>0</ele>
        <time>2020-02-08T11:06:29Z</time>
      </trkpt>
      <trkpt lat="51.258980216834" lon="4.499863080482">
        <ele>0</ele>
        <time>2020-02-08T11:06:37Z</time>
      </trkpt>
      <trkpt lat="51.258837808353" lon="4.49968303727">
        <ele>0</ele>
        <time>2020-02-08T11:06:44Z</time>
      </trkpt>
      <trkpt lat="51.258697998261" lon="4.499474998512">
        <ele>0</ele>
        <time>2020-02-08T11:06:51Z</time>
      </trkpt>
      <trkpt lat="51.258556344151" lon="4.499268552315">
        <ele>0</ele>
        <time>2020-02-08T11:06:59Z</time>
      </trkpt>
      <trkpt lat="51.258401027544" lon="4.499077947909">
        <ele>0</ele>
        <time>2020-02-08T11:07:07Z</time>
      </trkpt>
      <trkpt lat="51.258241519987" lon="4.498872256083">
        <ele>0</ele>
        <time>2020-02-08T11:07:15Z</time>
      </trkpt>
      <trkpt lat="51.258105565569" lon="4.498644268403">
        <ele>0</ele>
        <time>2020-02-08T11:07:23Z</time>
      </trkpt>
      <trkpt lat="51.257959720509" lon="4.498431116686">
        <ele>0</ele>
        <time>2020-02-08T11:07:31Z</time>
      </trkpt>
      <trkpt lat="51.257819407503" lon="4.498240428461">
        <ele>0</ele>
        <time>2020-02-08T11:07:38Z</time>
      </trkpt>
      <trkpt lat="51.257674987366" lon="4.49805611048">
        <ele>0</ele>
        <time>2020-02-08T11:07:45Z</time>
      </trkpt>
      <trkpt lat="51.257521598596" lon="4.497894172172">
        <ele>0</ele>
        <time>2020-02-08T11:07:52Z</time>
      </trkpt>
      <trkpt lat="51.257373993337" lon="4.49772837819">
        <ele>0</ele>
        <time>2020-02-08T11:07:59Z</time>
      </trkpt>
      <trkpt lat="51.257230327571" lon="4.497530481531">
        <ele>0</ele>
        <time>2020-02-08T11:08:06Z</time>
      </trkpt>
      <trkpt lat="51.257093618782" lon="4.497332501053">
        <ele>0</ele>
        <time>2020-02-08T11:08:13Z</time>
      </trkpt>
      <trkpt lat="51.256947186989" lon="4.497142734837">
        <ele>0</ele>
        <time>2020-02-08T11:08:20Z</time>
      </trkpt>
      <trkpt lat="51.256810562019" lon="4.49694886149">
        <ele>0</ele>
        <time>2020-02-08T11:08:27Z</time>
      </trkpt>
      <trkpt lat="51.256665136054" lon="4.496732859927">
        <ele>0</ele>
        <time>2020-02-08T11:08:35Z</time>
      </trkpt>
      <trkpt lat="51.25654058102" lon="4.496506632446">
        <ele>0</ele>
        <time>2020-02-08T11:08:42Z</time>
      </trkpt>
      <trkpt lat="51.256414936339" lon="4.496293899824">
        <ele>0</ele>
        <time>2020-02-08T11:08:49Z</time>
      </trkpt>
      <trkpt lat="51.256286944726" lon="4.496086028704">
        <ele>0</ele>
        <time>2020-02-08T11:08:56Z</time>
      </trkpt>
      <trkpt lat="51.256228103788" lon="4.495947392078">
        <ele>0</ele>
        <time>2020-02-08T11:09:00Z</time>
      </trkpt>
      <trkpt lat="51.256241682466" lon="4.495833649695">
        <ele>0</ele>
        <time>2020-02-08T11:09:03Z</time>
      </trkpt>
      <trkpt lat="51.256402531127" lon="4.495687050264">
        <ele>0</ele>
        <time>2020-02-08T11:09:09Z</time>
      </trkpt>
      <trkpt lat="51.256515267682" lon="4.495505665948">
        <ele>0</ele>
        <time>2020-02-08T11:09:17Z</time>
      </trkpt>
      <trkpt lat="51.256465227739" lon="4.495199642779">
        <ele>3.6</ele>
        <time>2020-02-08T11:09:25Z</time>
      </trkpt>
      <trkpt lat="51.256411164484" lon="4.494922369527">
        <ele>8.2</ele>
        <time>2020-02-08T11:09:33Z</time>
      </trkpt>
      <trkpt lat="51.25637294302" lon="4.494625734086">
        <ele>10.8</ele>
        <time>2020-02-08T11:09:40Z</time>
      </trkpt>
      <trkpt lat="51.25635534103" lon="4.494327673722">
        <ele>9.8</ele>
        <time>2020-02-08T11:09:47Z</time>
      </trkpt>
      <trkpt lat="51.256327345484" lon="4.494012430463">
        <ele>8</ele>
        <time>2020-02-08T11:09:55Z</time>
      </trkpt>
      <trkpt lat="51.256327764579" lon="4.493718309592">
        <ele>7.2</ele>
        <time>2020-02-08T11:10:02Z</time>
      </trkpt>
      <trkpt lat="51.256306139277" lon="4.49339912684">
        <ele>8</ele>
        <time>2020-02-08T11:10:10Z</time>
      </trkpt>
      <trkpt lat="51.256294236979" lon="4.493092181662">
        <ele>6.8</ele>
        <time>2020-02-08T11:10:17Z</time>
      </trkpt>
      <trkpt lat="51.256282083224" lon="4.492765119924">
        <ele>6</ele>
        <time>2020-02-08T11:10:24Z</time>
      </trkpt>
      <trkpt lat="51.256279820111" lon="4.492471921062">
        <ele>0.2</ele>
        <time>2020-02-08T11:10:31Z</time>
      </trkpt>
      <trkpt lat="51.25625140547" lon="4.492173106327">
        <ele>0</ele>
        <time>2020-02-08T11:10:38Z</time>
      </trkpt>
      <trkpt lat="51.256226762684" lon="4.491855935231">
        <ele>1</ele>
        <time>2020-02-08T11:10:46Z</time>
      </trkpt>
      <trkpt lat="51.2562153633" lon="4.491568268423">
        <ele>2.8</ele>
        <time>2020-02-08T11:10:53Z</time>
      </trkpt>
      <trkpt lat="51.256224415752" lon="4.491265598014">
        <ele>2.6</ele>
        <time>2020-02-08T11:11:00Z</time>
      </trkpt>
      <trkpt lat="51.256183763537" lon="4.490973488799">
        <ele>2.8</ele>
        <time>2020-02-08T11:11:07Z</time>
      </trkpt>
      <trkpt lat="51.256165407176" lon="4.490665705431">
        <ele>0.8</ele>
        <time>2020-02-08T11:11:14Z</time>
      </trkpt>
      <trkpt lat="51.256141267304" lon="4.490342499367">
        <ele>0.8</ele>
        <time>2020-02-08T11:11:22Z</time>
      </trkpt>
      <trkpt lat="51.256122240391" lon="4.490027004651">
        <ele>2.6</ele>
        <time>2020-02-08T11:11:30Z</time>
      </trkpt>
      <trkpt lat="51.256089970076" lon="4.489716706713">
        <ele>2.4</ele>
        <time>2020-02-08T11:11:37Z</time>
      </trkpt>
      <trkpt lat="51.256067674222" lon="4.489358464307">
        <ele>0</ele>
        <time>2020-02-08T11:11:45Z</time>
      </trkpt>
      <trkpt lat="51.256057615942" lon="4.489046573808">
        <ele>0</ele>
        <time>2020-02-08T11:11:52Z</time>
      </trkpt>
      <trkpt lat="51.256040935961" lon="4.488735772956">
        <ele>0</ele>
        <time>2020-02-08T11:11:59Z</time>
      </trkpt>
      <trkpt lat="51.256022747238" lon="4.488445004845">
        <ele>0</ele>
        <time>2020-02-08T11:12:06Z</time>
      </trkpt>
      <trkpt lat="51.256015790261" lon="4.488122301695">
        <ele>0</ele>
        <time>2020-02-08T11:12:14Z</time>
      </trkpt>
      <trkpt lat="51.256014784433" lon="4.487978803567">
        <ele>2</ele>
        <time>2020-02-08T11:12:18Z</time>
      </trkpt>
      <trkpt lat="51.256057364485" lon="4.487689711836">
        <ele>4</ele>
        <time>2020-02-08T11:12:25Z</time>
      </trkpt>
      <trkpt lat="51.256188457401" lon="4.487496928136">
        <ele>5.8</ele>
        <time>2020-02-08T11:12:31Z</time>
      </trkpt>
      <trkpt lat="51.256349892795" lon="4.487304228255">
        <ele>9.2</ele>
        <time>2020-02-08T11:12:38Z</time>
      </trkpt>
      <trkpt lat="51.256492552733" lon="4.48712778926">
        <ele>12.4</ele>
        <time>2020-02-08T11:12:45Z</time>
      </trkpt>
      <trkpt lat="51.256645438589" lon="4.486958726337">
        <ele>15.6</ele>
        <time>2020-02-08T11:12:52Z</time>
      </trkpt>
      <trkpt lat="51.256808215087" lon="4.486784718093">
        <ele>16.8</ele>
        <time>2020-02-08T11:12:59Z</time>
      </trkpt>
      <trkpt lat="51.256963699332" lon="4.486583468674">
        <ele>12</ele>
        <time>2020-02-08T11:13:06Z</time>
      </trkpt>
      <trkpt lat="51.257113148609" lon="4.48641616595">
        <ele>6.8</ele>
        <time>2020-02-08T11:13:13Z</time>
      </trkpt>
      <trkpt lat="51.257270141596" lon="4.486216425273">
        <ele>2.6</ele>
        <time>2020-02-08T11:13:21Z</time>
      </trkpt>
      <trkpt lat="51.257433588646" lon="4.486023809211">
        <ele>0</ele>
        <time>2020-02-08T11:13:29Z</time>
      </trkpt>
      <trkpt lat="51.257594772583" lon="4.48582691838">
        <ele>0</ele>
        <time>2020-02-08T11:13:37Z</time>
      </trkpt>
      <trkpt lat="51.257754866873" lon="4.485623070572">
        <ele>0</ele>
        <time>2020-02-08T11:13:45Z</time>
      </trkpt>
      <trkpt lat="51.257893587318" lon="4.485425928284">
        <ele>0</ele>
        <time>2020-02-08T11:13:52Z</time>
      </trkpt>
      <trkpt lat="51.258042114586" lon="4.485232222575">
        <ele>0</ele>
        <time>2020-02-08T11:13:59Z</time>
      </trkpt>
      <trkpt lat="51.25819600627" lon="4.485042707816">
        <ele>0</ele>
        <time>2020-02-08T11:14:06Z</time>
      </trkpt>
      <trkpt lat="51.258340761683" lon="4.484840536388">
        <ele>0</ele>
        <time>2020-02-08T11:14:13Z</time>
      </trkpt>
      <trkpt lat="51.258484846544" lon="4.484646495403">
        <ele>0</ele>
        <time>2020-02-08T11:14:20Z</time>
      </trkpt>
      <trkpt lat="51.258609988311" lon="4.484425883795">
        <ele>0</ele>
        <time>2020-02-08T11:14:27Z</time>
      </trkpt>
      <trkpt lat="51.25871065493" lon="4.484177611917">
        <ele>0</ele>
        <time>2020-02-08T11:14:34Z</time>
      </trkpt>
      <trkpt lat="51.258782487813" lon="4.483902853235">
        <ele>0</ele>
        <time>2020-02-08T11:14:41Z</time>
      </trkpt>
      <trkpt lat="51.258866893546" lon="4.483648211113">
        <ele>0</ele>
        <time>2020-02-08T11:14:48Z</time>
      </trkpt>
      <trkpt lat="51.258960770826" lon="4.48338694729">
        <ele>0</ele>
        <time>2020-02-08T11:14:55Z</time>
      </trkpt>
      <trkpt lat="51.259059174332" lon="4.483128617132">
        <ele>1.4</ele>
        <time>2020-02-08T11:15:02Z</time>
      </trkpt>
      <trkpt lat="51.259161349693" lon="4.482879423245">
        <ele>4.6</ele>
        <time>2020-02-08T11:15:09Z</time>
      </trkpt>
      <trkpt lat="51.259293029342" lon="4.482653363402">
        <ele>5.6</ele>
        <time>2020-02-08T11:15:16Z</time>
      </trkpt>
      <trkpt lat="51.259410040666" lon="4.482425627179">
        <ele>6.6</ele>
        <time>2020-02-08T11:15:23Z</time>
      </trkpt>
      <trkpt lat="51.259498804987" lon="4.482134942887">
        <ele>6</ele>
        <time>2020-02-08T11:15:31Z</time>
      </trkpt>
      <trkpt lat="51.259555885726" lon="4.481828500623">
        <ele>1.8</ele>
        <time>2020-02-08T11:15:39Z</time>
      </trkpt>
      <trkpt lat="51.259624617306" lon="4.481554412493">
        <ele>0.8</ele>
        <time>2020-02-08T11:15:47Z</time>
      </trkpt>
      <trkpt lat="51.259675243982" lon="4.4812487246">
        <ele>0</ele>
        <time>2020-02-08T11:15:55Z</time>
      </trkpt>
      <trkpt lat="51.259717488758" lon="4.480947227657">
        <ele>0</ele>
        <time>2020-02-08T11:16:02Z</time>
      </trkpt>
      <trkpt lat="51.259766522873" lon="4.480649251112">
        <ele>0</ele>
        <time>2020-02-08T11:16:09Z</time>
      </trkpt>
      <trkpt lat="51.259811785133" lon="4.480365439978">
        <ele>0</ele>
        <time>2020-02-08T11:16:16Z</time>
      </trkpt>
      <trkpt lat="51.259842714344" lon="4.480064445949">
        <ele>0</ele>
        <time>2020-02-08T11:16:23Z</time>
      </trkpt>
      <trkpt lat="51.259909937182" lon="4.479796811882">
        <ele>0</ele>
        <time>2020-02-08T11:16:30Z</time>
      </trkpt>
      <trkpt lat="51.259978249667" lon="4.479499589708">
        <ele>0</ele>
        <time>2020-02-08T11:16:38Z</time>
      </trkpt>
      <trkpt lat="51.260023344289" lon="4.479209492149">
        <ele>0</ele>
        <time>2020-02-08T11:16:46Z</time>
      </trkpt>
      <trkpt lat="51.260072797499" lon="4.478920400418">
        <ele>0</ele>
        <time>2020-02-08T11:16:54Z</time>
      </trkpt>
      <trkpt lat="51.260114539361" lon="4.478601888218">
        <ele>0</ele>
        <time>2020-02-08T11:17:02Z</time>
      </trkpt>
      <trkpt lat="51.260166004227" lon="4.478286309683">
        <ele>0</ele>
        <time>2020-02-08T11:17:10Z</time>
      </trkpt>
      <trkpt lat="51.260204477148" lon="4.477987494948">
        <ele>0</ele>
        <time>2020-02-08T11:17:17Z</time>
      </trkpt>
      <trkpt lat="51.260243369164" lon="4.477674766259">
        <ele>0</ele>
        <time>2020-02-08T11:17:25Z</time>
      </trkpt>
      <trkpt lat="51.260274549832" lon="4.477666803454">
        <ele>0</ele>
        <time>2020-02-08T11:17:27Z</time>
      </trkpt>
      <trkpt lat="51.260206991718" lon="4.477949273484">
        <ele>0</ele>
        <time>2020-02-08T11:17:37Z</time>
      </trkpt>
      <trkpt lat="51.260176397783" lon="4.478274575023">
        <ele>0</ele>
        <time>2020-02-08T11:17:45Z</time>
      </trkpt>
      <trkpt lat="51.260144546563" lon="4.478587387531">
        <ele>2.6</ele>
        <time>2020-02-08T11:17:52Z</time>
      </trkpt>
      <trkpt lat="51.260106995651" lon="4.478896847279">
        <ele>4.2</ele>
        <time>2020-02-08T11:17:59Z</time>
      </trkpt>
      <trkpt lat="51.260058883545" lon="4.479204043914">
        <ele>6.2</ele>
        <time>2020-02-08T11:18:07Z</time>
      </trkpt>
      <trkpt lat="51.260034576035" lon="4.479495817853">
        <ele>7.2</ele>
        <time>2020-02-08T11:18:14Z</time>
      </trkpt>
      <trkpt lat="51.259986799205" lon="4.479808965637">
        <ele>9</ele>
        <time>2020-02-08T11:18:22Z</time>
      </trkpt>
      <trkpt lat="51.259934831425" lon="4.480099230834">
        <ele>6.6</ele>
        <time>2020-02-08T11:18:29Z</time>
      </trkpt>
      <trkpt lat="51.259874314107" lon="4.48039041804">
        <ele>5.2</ele>
        <time>2020-02-08T11:18:36Z</time>
      </trkpt>
      <trkpt lat="51.259842798163" lon="4.480679761228">
        <ele>3.6</ele>
        <time>2020-02-08T11:18:43Z</time>
      </trkpt>
      <trkpt lat="51.259797619722" lon="4.480989053338">
        <ele>0.8</ele>
        <time>2020-02-08T11:18:51Z</time>
      </trkpt>
      <trkpt lat="51.259751016358" lon="4.481271691006">
        <ele>1</ele>
        <time>2020-02-08T11:18:58Z</time>
      </trkpt>
      <trkpt lat="51.259687481556" lon="4.481579055279">
        <ele>0.2</ele>
        <time>2020-02-08T11:19:06Z</time>
      </trkpt>
      <trkpt lat="51.259635010862" lon="4.481866554449">
        <ele>0</ele>
        <time>2020-02-08T11:19:13Z</time>
      </trkpt>
      <trkpt lat="51.259572817164" lon="4.482179534595">
        <ele>0</ele>
        <time>2020-02-08T11:19:21Z</time>
      </trkpt>
      <trkpt lat="51.259464942111" lon="4.482449180318">
        <ele>0</ele>
        <time>2020-02-08T11:19:28Z</time>
      </trkpt>
      <trkpt lat="51.259357486153" lon="4.482721005335">
        <ele>0</ele>
        <time>2020-02-08T11:19:35Z</time>
      </trkpt>
      <trkpt lat="51.259256735715" lon="4.482965589177">
        <ele>0</ele>
        <time>2020-02-08T11:19:42Z</time>
      </trkpt>
      <trkpt lat="51.259148944481" lon="4.483217968186">
        <ele>1.2</ele>
        <time>2020-02-08T11:19:49Z</time>
      </trkpt>
      <trkpt lat="51.259049702785" lon="4.483459953639">
        <ele>1.2</ele>
        <time>2020-02-08T11:19:56Z</time>
      </trkpt>
      <trkpt lat="51.258944174664" lon="4.483728342077">
        <ele>0</ele>
        <time>2020-02-08T11:20:04Z</time>
      </trkpt>
      <trkpt lat="51.258861864406" lon="4.483994551221">
        <ele>0</ele>
        <time>2020-02-08T11:20:12Z</time>
      </trkpt>
      <trkpt lat="51.258753905534" lon="4.484270567188">
        <ele>0</ele>
        <time>2020-02-08T11:20:20Z</time>
      </trkpt>
      <trkpt lat="51.258652987458" lon="4.484529484079">
        <ele>0</ele>
        <time>2020-02-08T11:20:28Z</time>
      </trkpt>
      <trkpt lat="51.258470010581" lon="4.484616739658">
        <ele>0</ele>
        <time>2020-02-08T11:20:37Z</time>
      </trkpt>
      <trkpt lat="51.258320812761" lon="4.484818408172">
        <ele>0</ele>
        <time>2020-02-08T11:20:45Z</time>
      </trkpt>
      <trkpt lat="51.258171112027" lon="4.485002223239">
        <ele>0</ele>
        <time>2020-02-08T11:20:52Z</time>
      </trkpt>
      <trkpt lat="51.258026859528" lon="4.485176566759">
        <ele>0</ele>
        <time>2020-02-08T11:20:59Z</time>
      </trkpt>
      <trkpt lat="51.257878835174" lon="4.485352670478">
        <ele>0</ele>
        <time>2020-02-08T11:21:07Z</time>
      </trkpt>
      <trkpt lat="51.257737935435" lon="4.485538078106">
        <ele>0</ele>
        <time>2020-02-08T11:21:15Z</time>
      </trkpt>
      <trkpt lat="51.257575578032" lon="4.485726167942">
        <ele>0</ele>
        <time>2020-02-08T11:21:23Z</time>
      </trkpt>
      <trkpt lat="51.257426883126" lon="4.485885926956">
        <ele>0</ele>
        <time>2020-02-08T11:21:30Z</time>
      </trkpt>
      <trkpt lat="51.257252539606" lon="4.485899924729">
        <ele>0</ele>
        <time>2020-02-08T11:21:37Z</time>
      </trkpt>
      <trkpt lat="51.257207361165" lon="4.485895482322">
        <ele>0</ele>
        <time>2020-02-08T11:21:39Z</time>
      </trkpt>
      <trkpt lat="51.257174504117" lon="4.485937810917">
        <ele>0</ele>
        <time>2020-02-08T11:21:41Z</time>
      </trkpt>
      <trkpt lat="51.257139803051" lon="4.486236206557">
        <ele>0</ele>
        <time>2020-02-08T11:21:49Z</time>
      </trkpt>
      <trkpt lat="51.256980463132" lon="4.486446005514">
        <ele>0</ele>
        <time>2020-02-08T11:21:57Z</time>
      </trkpt>
      <trkpt lat="51.256837048823" lon="4.486649601865">
        <ele>0</ele>
        <time>2020-02-08T11:22:04Z</time>
      </trkpt>
      <trkpt lat="51.25667888237" lon="4.48682771724">
        <ele>0</ele>
        <time>2020-02-08T11:22:11Z</time>
      </trkpt>
      <trkpt lat="51.256525074505" lon="4.487024440433">
        <ele>1.4</ele>
        <time>2020-02-08T11:22:18Z</time>
      </trkpt>
      <trkpt lat="51.256370596088" lon="4.487205824749">
        <ele>2.2</ele>
        <time>2020-02-08T11:22:25Z</time>
      </trkpt>
      <trkpt lat="51.256211591445" lon="4.487416713353">
        <ele>3.2</ele>
        <time>2020-02-08T11:22:33Z</time>
      </trkpt>
      <trkpt lat="51.256059208503" lon="4.487591978882">
        <ele>2.8</ele>
        <time>2020-02-08T11:22:40Z</time>
      </trkpt>
      <trkpt lat="51.255892995426" lon="4.487763556375">
        <ele>1.4</ele>
        <time>2020-02-08T11:22:48Z</time>
      </trkpt>
      <trkpt lat="51.255718568087" lon="4.487910993996">
        <ele>0.2</ele>
        <time>2020-02-08T11:22:56Z</time>
      </trkpt>
      <trkpt lat="51.25555403139" lon="4.488051055545">
        <ele>0</ele>
        <time>2020-02-08T11:23:04Z</time>
      </trkpt>
      <trkpt lat="51.255260497252" lon="4.488359174189">
        <ele>0</ele>
        <time>2020-02-08T11:23:18Z</time>
      </trkpt>
      <trkpt lat="51.255157735158" lon="4.488600656728">
        <ele>0</ele>
        <time>2020-02-08T11:23:26Z</time>
      </trkpt>
      <trkpt lat="51.255061510946" lon="4.488878265256">
        <ele>0</ele>
        <time>2020-02-08T11:23:34Z</time>
      </trkpt>
      <trkpt lat="51.254946259821" lon="4.489131314817">
        <ele>0</ele>
        <time>2020-02-08T11:23:42Z</time>
      </trkpt>
      <trkpt lat="51.254822040063" lon="4.48934144905">
        <ele>0</ele>
        <time>2020-02-08T11:23:49Z</time>
      </trkpt>
      <trkpt lat="51.254676278822" lon="4.489529287429">
        <ele>1</ele>
        <time>2020-02-08T11:23:56Z</time>
      </trkpt>
      <trkpt lat="51.25461944954" lon="4.489815445495">
        <ele>2</ele>
        <time>2020-02-08T11:24:05Z</time>
      </trkpt>
      <trkpt lat="51.254476370507" lon="4.490019796217">
        <ele>3.2</ele>
        <time>2020-02-08T11:24:12Z</time>
      </trkpt>
      <trkpt lat="51.254327507963" lon="4.490224817491">
        <ele>5.2</ele>
        <time>2020-02-08T11:24:19Z</time>
      </trkpt>
      <trkpt lat="51.254202282377" lon="4.490436460466">
        <ele>6.2</ele>
        <time>2020-02-08T11:24:26Z</time>
      </trkpt>
      <trkpt lat="51.254108321278" lon="4.490698059565">
        <ele>5</ele>
        <time>2020-02-08T11:24:33Z</time>
      </trkpt>
      <trkpt lat="51.254028022676" lon="4.490986396925">
        <ele>5.6</ele>
        <time>2020-02-08T11:24:41Z</time>
      </trkpt>
      <trkpt lat="51.254043361553" lon="4.491305747315">
        <ele>6.2</ele>
        <time>2020-02-08T11:24:49Z</time>
      </trkpt>
      <trkpt lat="51.254156684841" lon="4.491551504623">
        <ele>5.2</ele>
        <time>2020-02-08T11:24:56Z</time>
      </trkpt>
      <trkpt lat="51.254294315639" lon="4.491769098747">
        <ele>3.2</ele>
        <time>2020-02-08T11:25:03Z</time>
      </trkpt>
      <trkpt lat="51.254409147669" lon="4.492002367024">
        <ele>2.6</ele>
        <time>2020-02-08T11:25:10Z</time>
      </trkpt>
      <trkpt lat="51.254541833146" lon="4.492222224261">
        <ele>3.6</ele>
        <time>2020-02-08T11:25:17Z</time>
      </trkpt>
      <trkpt lat="51.254662867782" lon="4.492479883867">
        <ele>3.2</ele>
        <time>2020-02-08T11:25:25Z</time>
      </trkpt>
      <trkpt lat="51.254786668445" lon="4.492737375835">
        <ele>3</ele>
        <time>2020-02-08T11:25:33Z</time>
      </trkpt>
      <trkpt lat="51.254921784673" lon="4.492966704619">
        <ele>0</ele>
        <time>2020-02-08T11:25:41Z</time>
      </trkpt>
      <trkpt lat="51.255063941697" lon="4.493189495521">
        <ele>0</ele>
        <time>2020-02-08T11:25:49Z</time>
      </trkpt>
      <trkpt lat="51.255190089292" lon="4.49340331779">
        <ele>0</ele>
        <time>2020-02-08T11:25:56Z</time>
      </trkpt>
      <trkpt lat="51.255303328761" lon="4.493640022646">
        <ele>0</ele>
        <time>2020-02-08T11:26:03Z</time>
      </trkpt>
      <trkpt lat="51.255443725586" lon="4.493874129113">
        <ele>0</ele>
        <time>2020-02-08T11:26:11Z</time>
      </trkpt>
      <trkpt lat="51.255575237597" lon="4.494121478982">
        <ele>0</ele>
        <time>2020-02-08T11:26:20Z</time>
      </trkpt>
      <trkpt lat="51.25570993473" lon="4.494318369813">
        <ele>0</ele>
        <time>2020-02-08T11:26:27Z</time>
      </trkpt>
      <trkpt lat="51.255828203339" lon="4.494547195683">
        <ele>0</ele>
        <time>2020-02-08T11:26:34Z</time>
      </trkpt>
      <trkpt lat="51.255939514971" lon="4.494778955218">
        <ele>0</ele>
        <time>2020-02-08T11:26:41Z</time>
      </trkpt>
      <trkpt lat="51.256058370313" lon="4.495031250408">
        <ele>0.2</ele>
        <time>2020-02-08T11:26:48Z</time>
      </trkpt>
      <trkpt lat="51.256183763537" lon="4.495244402125">
        <ele>2</ele>
        <time>2020-02-08T11:26:55Z</time>
      </trkpt>
      <trkpt lat="51.256327764579" lon="4.495461493335">
        <ele>4</ele>
        <time>2020-02-08T11:27:02Z</time>
      </trkpt>
      <trkpt lat="51.256439579125" lon="4.495715716362">
        <ele>7.8</ele>
        <time>2020-02-08T11:27:09Z</time>
      </trkpt>
      <trkpt lat="51.256541838305" lon="4.495987709017">
        <ele>8.4</ele>
        <time>2020-02-08T11:27:18Z</time>
      </trkpt>
      <trkpt lat="51.256669243185" lon="4.496222653674">
        <ele>6.4</ele>
        <time>2020-02-08T11:27:26Z</time>
      </trkpt>
      <trkpt lat="51.256719869861" lon="4.496395907547">
        <ele>4.8</ele>
        <time>2020-02-08T11:27:31Z</time>
      </trkpt>
      <trkpt lat="51.25669899893" lon="4.496681059785">
        <ele>2.4</ele>
        <time>2020-02-08T11:27:38Z</time>
      </trkpt>
      <trkpt lat="51.256808969458" lon="4.496939054667">
        <ele>1.8</ele>
        <time>2020-02-08T11:27:46Z</time>
      </trkpt>
      <trkpt lat="51.256951377939" lon="4.497112057083">
        <ele>2.6</ele>
        <time>2020-02-08T11:27:53Z</time>
      </trkpt>
      <trkpt lat="51.257112980971" lon="4.497290172458">
        <ele>3.4</ele>
        <time>2020-02-08T11:28:01Z</time>
      </trkpt>
      <trkpt lat="51.257262346429" lon="4.497478849027">
        <ele>2.8</ele>
        <time>2020-02-08T11:28:08Z</time>
      </trkpt>
      <trkpt lat="51.257417243941" lon="4.497685043767">
        <ele>1</ele>
        <time>2020-02-08T11:28:15Z</time>
      </trkpt>
      <trkpt lat="51.257566860856" lon="4.497876151087">
        <ele>1.4</ele>
        <time>2020-02-08T11:28:22Z</time>
      </trkpt>
      <trkpt lat="51.25770817969" lon="4.498073628651">
        <ele>1.2</ele>
        <time>2020-02-08T11:28:29Z</time>
      </trkpt>
      <trkpt lat="51.257848241239" lon="4.498257527537">
        <ele>4.6</ele>
        <time>2020-02-08T11:28:36Z</time>
      </trkpt>
      <trkpt lat="51.257994756851" lon="4.498431368143">
        <ele>8.8</ele>
        <time>2020-02-08T11:28:44Z</time>
      </trkpt>
      <trkpt lat="51.258144625223" lon="4.498636724693">
        <ele>11.2</ele>
        <time>2020-02-08T11:28:53Z</time>
      </trkpt>
      <trkpt lat="51.258295331785" lon="4.498817857552">
        <ele>10</ele>
        <time>2020-02-08T11:28:59Z</time>
      </trkpt>
      <trkpt lat="51.258470513495" lon="4.499055149141">
        <ele>6.2</ele>
        <time>2020-02-08T11:29:07Z</time>
      </trkpt>
      <trkpt lat="51.258610826501" lon="4.499254470723">
        <ele>1.8</ele>
        <time>2020-02-08T11:29:14Z</time>
      </trkpt>
      <trkpt lat="51.258752061516" lon="4.49946175511">
        <ele>1</ele>
        <time>2020-02-08T11:29:21Z</time>
      </trkpt>
      <trkpt lat="51.258897990395" lon="4.499648420023">
        <ele>0.4</ele>
        <time>2020-02-08T11:29:28Z</time>
      </trkpt>
      <trkpt lat="51.259035621193" lon="4.499842041913">
        <ele>0</ele>
        <time>2020-02-08T11:29:35Z</time>
      </trkpt>
      <trkpt lat="51.259182136805" lon="4.500034825613">
        <ele>0</ele>
        <time>2020-02-08T11:29:44Z</time>
      </trkpt>
      <trkpt lat="51.259326137847" lon="4.500225094743">
        <ele>0</ele>
        <time>2020-02-08T11:29:51Z</time>
      </trkpt>
      <trkpt lat="51.259467037586" lon="4.500423410497">
        <ele>0</ele>
        <time>2020-02-08T11:29:58Z</time>
      </trkpt>
      <trkpt lat="51.259619504347" lon="4.500608147573">
        <ele>0</ele>
        <time>2020-02-08T11:30:05Z</time>
      </trkpt>
      <trkpt lat="51.259757302783" lon="4.500796572685">
        <ele>0.4</ele>
        <time>2020-02-08T11:30:12Z</time>
      </trkpt>
      <trkpt lat="51.259888982432" lon="4.501007545108">
        <ele>0.8</ele>
        <time>2020-02-08T11:30:19Z</time>
      </trkpt>
      <trkpt lat="51.26003248056" lon="4.501226564155">
        <ele>1.4</ele>
        <time>2020-02-08T11:30:26Z</time>
      </trkpt>
      <trkpt lat="51.260167764426" lon="4.501449857971">
        <ele>1.8</ele>
        <time>2020-02-08T11:30:33Z</time>
      </trkpt>
      <trkpt lat="51.260294582573" lon="4.501670469579">
        <ele>0</ele>
        <time>2020-02-08T11:30:40Z</time>
      </trkpt>
      <trkpt lat="51.260410168974" lon="4.50190088801">
        <ele>2.8</ele>
        <time>2020-02-08T11:30:48Z</time>
      </trkpt>
      <trkpt lat="51.26052701266" lon="4.502139855979">
        <ele>3.6</ele>
        <time>2020-02-08T11:30:55Z</time>
      </trkpt>
      <trkpt lat="51.260643353432" lon="4.502403131458">
        <ele>3.8</ele>
        <time>2020-02-08T11:31:03Z</time>
      </trkpt>
      <trkpt lat="51.260759945661" lon="4.502646541834">
        <ele>3</ele>
        <time>2020-02-08T11:31:11Z</time>
      </trkpt>
      <trkpt lat="51.26088240522" lon="4.502863213949">
        <ele>2.2</ele>
        <time>2020-02-08T11:31:18Z</time>
      </trkpt>
      <trkpt lat="51.260998997449" lon="4.503098158606">
        <ele>0.4</ele>
        <time>2020-02-08T11:31:26Z</time>
      </trkpt>
      <trkpt lat="51.261125396501" lon="4.503328744675">
        <ele>0.4</ele>
        <time>2020-02-08T11:31:34Z</time>
      </trkpt>
      <trkpt lat="51.261248191336" lon="4.503565952445">
        <ele>0</ele>
        <time>2020-02-08T11:31:42Z</time>
      </trkpt>
      <trkpt lat="51.261375680035" lon="4.503775248488">
        <ele>0</ele>
        <time>2020-02-08T11:31:49Z</time>
      </trkpt>
      <trkpt lat="51.261503755467" lon="4.504006924204">
        <ele>0</ele>
        <time>2020-02-08T11:31:57Z</time>
      </trkpt>
      <trkpt lat="51.261636440944" lon="4.504246227449">
        <ele>0</ele>
        <time>2020-02-08T11:32:05Z</time>
      </trkpt>
      <trkpt lat="51.261767701498" lon="4.50446826398">
        <ele>0</ele>
        <time>2020-02-08T11:32:13Z</time>
      </trkpt>
      <trkpt lat="51.261885131917" lon="4.50470295718">
        <ele>0</ele>
        <time>2020-02-08T11:32:21Z</time>
      </trkpt>
      <trkpt lat="51.262002562336" lon="4.504925748082">
        <ele>0.2</ele>
        <time>2020-02-08T11:32:28Z</time>
      </trkpt>
      <trkpt lat="51.26211789728" lon="4.505153987219">
        <ele>0</ele>
        <time>2020-02-08T11:32:35Z</time>
      </trkpt>
      <trkpt lat="51.26223440569" lon="4.505373844456">
        <ele>0</ele>
        <time>2020-02-08T11:32:42Z</time>
      </trkpt>
      <trkpt lat="51.262369773375" lon="4.505610465493">
        <ele>0.2</ele>
        <time>2020-02-08T11:32:50Z</time>
      </trkpt>
      <trkpt lat="51.262508577639" lon="4.505819761536">
        <ele>0</ele>
        <time>2020-02-08T11:32:57Z</time>
      </trkpt>
      <trkpt lat="51.262640005831" lon="4.506039451135">
        <ele>0.2</ele>
        <time>2020-02-08T11:33:05Z</time>
      </trkpt>
      <trkpt lat="51.262755927508" lon="4.506273557602">
        <ele>0</ele>
        <time>2020-02-08T11:33:12Z</time>
      </trkpt>
      <trkpt lat="51.262886768967" lon="4.50651093301">
        <ele>0</ele>
        <time>2020-02-08T11:33:20Z</time>
      </trkpt>
      <trkpt lat="51.263028339258" lon="4.506750236255">
        <ele>0</ele>
        <time>2020-02-08T11:33:28Z</time>
      </trkpt>
      <trkpt lat="51.263151553188" lon="4.50697026113">
        <ele>0.2</ele>
        <time>2020-02-08T11:33:35Z</time>
      </trkpt>
      <trkpt lat="51.263297984981" lon="4.507188106711">
        <ele>1.2</ele>
        <time>2020-02-08T11:33:42Z</time>
      </trkpt>
      <trkpt lat="51.263410050984" lon="4.507424811567">
        <ele>1</ele>
        <time>2020-02-08T11:33:49Z</time>
      </trkpt>
      <trkpt lat="51.26352857105" lon="4.5076852372">
        <ele>0.8</ele>
        <time>2020-02-08T11:33:57Z</time>
      </trkpt>
      <trkpt lat="51.263621442502" lon="4.507946081928">
        <ele>0</ele>
        <time>2020-02-08T11:34:04Z</time>
      </trkpt>
      <trkpt lat="51.26375320597" lon="4.50819485672">
        <ele>0</ele>
        <time>2020-02-08T11:34:12Z</time>
      </trkpt>
      <trkpt lat="51.263798887325" lon="4.508293511683">
        <ele>0</ele>
        <time>2020-02-08T11:34:15Z</time>
      </trkpt>
      <trkpt lat="51.263830235631" lon="4.508387975696">
        <ele>0</ele>
        <time>2020-02-08T11:34:46Z</time>
      </trkpt>
      <trkpt lat="51.263873318597" lon="4.508415635966">
        <ele>0.8</ele>
        <time>2020-02-08T11:34:47Z</time>
      </trkpt>
      <trkpt lat="51.26400885392" lon="4.508641025257">
        <ele>1.6</ele>
        <time>2020-02-08T11:34:55Z</time>
      </trkpt>
      <trkpt lat="51.264152016772" lon="4.508872533335">
        <ele>2.2</ele>
        <time>2020-02-08T11:35:02Z</time>
      </trkpt>
      <trkpt lat="51.264281517127" lon="4.509108148544">
        <ele>1.4</ele>
        <time>2020-02-08T11:35:09Z</time>
      </trkpt>
      <trkpt lat="51.264398528451" lon="4.509346278323">
        <ele>1.4</ele>
        <time>2020-02-08T11:35:16Z</time>
      </trkpt>
      <trkpt lat="51.264548899737" lon="4.50960050135">
        <ele>1.6</ele>
        <time>2020-02-08T11:35:24Z</time>
      </trkpt>
      <trkpt lat="51.264682507223" lon="4.509835865102">
        <ele>2.6</ele>
        <time>2020-02-08T11:35:32Z</time>
      </trkpt>
      <trkpt lat="51.264806726981" lon="4.51007743146">
        <ele>0</ele>
        <time>2020-02-08T11:35:42Z</time>
      </trkpt>
      <trkpt lat="51.264921475192" lon="4.510309945366">
        <ele>0</ele>
        <time>2020-02-08T11:35:50Z</time>
      </trkpt>
      <trkpt lat="51.265039324706" lon="4.510562575832">
        <ele>0</ele>
        <time>2020-02-08T11:35:58Z</time>
      </trkpt>
      <trkpt lat="51.26518567268" lon="4.510742870501">
        <ele>0</ele>
        <time>2020-02-08T11:36:04Z</time>
      </trkpt>
      <trkpt lat="51.265340654011" lon="4.510933391088">
        <ele>0</ele>
        <time>2020-02-08T11:36:11Z</time>
      </trkpt>
      <trkpt lat="51.26549831755" lon="4.511109494807">
        <ele>0</ele>
        <time>2020-02-08T11:36:18Z</time>
      </trkpt>
      <trkpt lat="51.265614155408" lon="4.511273193314">
        <ele>0</ele>
        <time>2020-02-08T11:36:24Z</time>
      </trkpt>
      <trkpt lat="51.265652460691" lon="4.51157108604">
        <ele>0</ele>
        <time>2020-02-08T11:36:31Z</time>
      </trkpt>
      <trkpt lat="51.265784559435" lon="4.511789266897">
        <ele>0</ele>
        <time>2020-02-08T11:36:38Z</time>
      </trkpt>
      <trkpt lat="51.265906432261" lon="4.512007028659">
        <ele>0</ele>
        <time>2020-02-08T11:36:45Z</time>
      </trkpt>
      <trkpt lat="51.265883717312" lon="4.512292180897">
        <ele>0.2</ele>
        <time>2020-02-08T11:36:52Z</time>
      </trkpt>
      <trkpt lat="51.265762263581" lon="4.512525030079">
        <ele>7.4</ele>
        <time>2020-02-08T11:36:59Z</time>
      </trkpt>
      <trkpt lat="51.265630667751" lon="4.512750251732">
        <ele>16</ele>
        <time>2020-02-08T11:37:07Z</time>
      </trkpt>
      <trkpt lat="51.26549077384" lon="4.5129742161">
        <ele>19.8</ele>
        <time>2020-02-08T11:37:15Z</time>
      </trkpt>
      <trkpt lat="51.265365799711" lon="4.513208825481">
        <ele>19.6</ele>
        <time>2020-02-08T11:37:23Z</time>
      </trkpt>
      <trkpt lat="51.265219619375" lon="4.513413343841">
        <ele>18.4</ele>
        <time>2020-02-08T11:37:31Z</time>
      </trkpt>
      <trkpt lat="51.265041168724" lon="4.513403704656">
        <ele>13</ele>
        <time>2020-02-08T11:37:38Z</time>
      </trkpt>
      <trkpt lat="51.264856515467" lon="4.513302535123">
        <ele>7.6</ele>
        <time>2020-02-08T11:37:45Z</time>
      </trkpt>
      <trkpt lat="51.264672616581" lon="4.513171358388">
        <ele>4.2</ele>
        <time>2020-02-08T11:37:52Z</time>
      </trkpt>
      <trkpt lat="51.264490561713" lon="4.513077397289">
        <ele>1.6</ele>
        <time>2020-02-08T11:37:59Z</time>
      </trkpt>
      <trkpt lat="51.264336083296" lon="4.512927948012">
        <ele>1.4</ele>
        <time>2020-02-08T11:38:06Z</time>
      </trkpt>
      <trkpt lat="51.26430557318" lon="4.512868520341">
        <ele>2</ele>
        <time>2020-02-08T11:38:08Z</time>
      </trkpt>
      <trkpt lat="51.264400204831" lon="4.512628965639">
        <ele>2.6</ele>
        <time>2020-02-08T11:38:15Z</time>
      </trkpt>
      <trkpt lat="51.264516210327" lon="4.512397960475">
        <ele>6</ele>
        <time>2020-02-08T11:38:22Z</time>
      </trkpt>
      <trkpt lat="51.264656690971" lon="4.512179192885">
        <ele>6.6</ele>
        <time>2020-02-08T11:38:29Z</time>
      </trkpt>
      <trkpt lat="51.264803709497" lon="4.511999149673">
        <ele>9.4</ele>
        <time>2020-02-08T11:38:37Z</time>
      </trkpt>
      <trkpt lat="51.26497277242" lon="4.512133427711">
        <ele>15.4</ele>
        <time>2020-02-08T11:38:45Z</time>
      </trkpt>
      <trkpt lat="51.26504904771" lon="4.512177600324">
        <ele>18.4</ele>
        <time>2020-02-08T11:38:50Z</time>
      </trkpt>
      <trkpt lat="51.265192629657" lon="4.511990683954">
        <ele>22.8</ele>
        <time>2020-02-08T11:38:57Z</time>
      </trkpt>
      <trkpt lat="51.265337552708" lon="4.511778538065">
        <ele>24.4</ele>
        <time>2020-02-08T11:39:04Z</time>
      </trkpt>
      <trkpt lat="51.265478452447" lon="4.511553651688">
        <ele>26</ele>
        <time>2020-02-08T11:39:11Z</time>
      </trkpt>
      <trkpt lat="51.2655695637" lon="4.511456086372">
        <ele>25.2</ele>
        <time>2020-02-08T11:39:15Z</time>
      </trkpt>
      <trkpt lat="51.265610048277" lon="4.511481986443">
        <ele>22.8</ele>
        <time>2020-02-08T11:39:17Z</time>
      </trkpt>
      <trkpt lat="51.265605438232" lon="4.511583239795">
        <ele>20.6</ele>
        <time>2020-02-08T11:39:20Z</time>
      </trkpt>
      <trkpt lat="51.265452468557" lon="4.51180158829">
        <ele>19.2</ele>
        <time>2020-02-08T11:39:28Z</time>
      </trkpt>
      <trkpt lat="51.265299331244" lon="4.511958581277">
        <ele>23.2</ele>
        <time>2020-02-08T11:39:35Z</time>
      </trkpt>
      <trkpt lat="51.265163628283" lon="4.512210708829">
        <ele>36.6</ele>
        <time>2020-02-08T11:39:41Z</time>
      </trkpt>
      <trkpt lat="51.265005210373" lon="4.512314644389">
        <ele>37</ele>
        <time>2020-02-08T11:39:47Z</time>
      </trkpt>
      <trkpt lat="51.264849055576" lon="4.51215698085">
        <ele>29.4</ele>
        <time>2020-02-08T11:39:54Z</time>
      </trkpt>
      <trkpt lat="51.264843355884" lon="4.512091853487">
        <ele>29</ele>
        <time>2020-02-08T11:39:56Z</time>
      </trkpt>
      <trkpt lat="51.264887947592" lon="4.512118340291">
        <ele>28.8</ele>
        <time>2020-02-08T11:39:59Z</time>
      </trkpt>
      <trkpt lat="51.265015771567" lon="4.512318835339">
        <ele>28.8</ele>
        <time>2020-02-08T11:40:06Z</time>
      </trkpt>
      <trkpt lat="51.265174021839" lon="4.5121276442">
        <ele>31.4</ele>
        <time>2020-02-08T11:40:13Z</time>
      </trkpt>
      <trkpt lat="51.265317184691" lon="4.511897728683">
        <ele>27.8</ele>
        <time>2020-02-08T11:40:19Z</time>
      </trkpt>
      <trkpt lat="51.265465963416" lon="4.511666220605">
        <ele>27</ele>
        <time>2020-02-08T11:40:26Z</time>
      </trkpt>
      <trkpt lat="51.265633769054" lon="4.511641577819">
        <ele>27.4</ele>
        <time>2020-02-08T11:40:33Z</time>
      </trkpt>
      <trkpt lat="51.265774333517" lon="4.511884066186">
        <ele>20.8</ele>
        <time>2020-02-08T11:40:40Z</time>
      </trkpt>
      <trkpt lat="51.26591992712" lon="4.511992947067">
        <ele>17.6</ele>
        <time>2020-02-08T11:40:47Z</time>
      </trkpt>
      <trkpt lat="51.265941217146" lon="4.511916587958">
        <ele>16.4</ele>
        <time>2020-02-08T11:40:50Z</time>
      </trkpt>
      <trkpt lat="51.26575312731" lon="4.511806449792">
        <ele>8.8</ele>
        <time>2020-02-08T11:40:59Z</time>
      </trkpt>
      <trkpt lat="51.265543244534" lon="4.511726235009">
        <ele>6.2</ele>
        <time>2020-02-08T11:41:08Z</time>
      </trkpt>
      <trkpt lat="51.26552597782" lon="4.511741070972">
        <ele>6.4</ele>
        <time>2020-02-08T11:41:09Z</time>
      </trkpt>
      <trkpt lat="51.265380216579" lon="4.51189378919">
        <ele>10.2</ele>
        <time>2020-02-08T11:41:17Z</time>
      </trkpt>
      <trkpt lat="51.265464203217" lon="4.511635542851">
        <ele>17.6</ele>
        <time>2020-02-08T11:41:25Z</time>
      </trkpt>
      <trkpt lat="51.265514075522" lon="4.511585838184">
        <ele>19.6</ele>
        <time>2020-02-08T11:41:28Z</time>
      </trkpt>
      <trkpt lat="51.265529833494" lon="4.511615258653">
        <ele>21</ele>
        <time>2020-02-08T11:41:29Z</time>
      </trkpt>
    </trkseg>
  </trk>
</gpx>